sensor_id;sensor_type;location;lat;lon;timestamp;temperature;humidity
13982;DHT22;7065;50.880;5.502;2022-08-20T00:01:27;19.20;99.90
13982;DHT22;7065;50.880;5.502;2022-08-20T00:03:53;19.10;99.90
13982;DHT22;7065;50.880;5.502;2022-08-20T00:06:21;19.10;99.90
13982;DHT22;7065;50.880;5.502;2022-08-20T00:08:48;19.10;99.90
13982;DHT22;7065;50.880;5.502;2022-08-20T00:11:18;19.10;99.90
13982;DHT22;7065;50.880;5.502;2022-08-20T00:13:48;19.10;99.90
13982;DHT22;7065;50.880;5.502;2022-08-20T00:16:16;19.10;99.90
13982;DHT22;7065;50.880;5.502;2022-08-20T00:18:44;19.10;99.90
13982;DHT22;7065;50.880;5.502;2022-08-20T00:21:12;19.10;99.90
13982;DHT22;7065;50.880;5.502;2022-08-20T00:23:44;19.10;99.90
13982;DHT22;7065;50.880;5.502;2022-08-20T00:26:11;19.10;99.90
13982;DHT22;7065;50.880;5.502;2022-08-20T00:28:38;19.10;99.90
13982;DHT22;7065;50.880;5.502;2022-08-20T00:31:06;19.10;99.90
13982;DHT22;7065;50.880;5.502;2022-08-20T00:33:32;19.00;99.90
13982;DHT22;7065;50.880;5.502;2022-08-20T00:35:58;19.10;99.90
13982;DHT22;7065;50.880;5.502;2022-08-20T00:38:31;19.10;99.90
13982;DHT22;7065;50.880;5.502;2022-08-20T00:40:58;19.10;99.90
13982;DHT22;7065;50.880;5.502;2022-08-20T00:43:34;19.10;99.90
13982;DHT22;7065;50.880;5.502;2022-08-20T00:46:04;19.10;99.90
13982;DHT22;7065;50.880;5.502;2022-08-20T00:48:33;19.10;99.90
13982;DHT22;7065;50.880;5.502;2022-08-20T00:51:31;19.10;99.90
13982;DHT22;7065;50.880;5.502;2022-08-20T00:56:48;19.00;99.90
13982;DHT22;7065;50.880;5.502;2022-08-20T00:59:20;19.00;99.90
13982;DHT22;7065;50.880;5.502;2022-08-20T01:01:48;19.00;99.90
13982;DHT22;7065;50.880;5.502;2022-08-20T01:04:13;19.00;99.90
13982;DHT22;7065;50.880;5.502;2022-08-20T01:06:40;19.00;99.90
13982;DHT22;7065;50.880;5.502;2022-08-20T01:09:07;18.90;99.90
13982;DHT22;7065;50.880;5.502;2022-08-20T01:11:33;18.90;99.90
13982;DHT22;7065;50.880;5.502;2022-08-20T01:14:01;18.90;99.90
13982;DHT22;7065;50.880;5.502;2022-08-20T01:16:58;18.80;99.90
13982;DHT22;7065;50.880;5.502;2022-08-20T01:19:38;18.80;99.90
13982;DHT22;7065;50.880;5.502;2022-08-20T01:22:06;18.80;99.90
13982;DHT22;7065;50.880;5.502;2022-08-20T01:24:57;18.80;99.90
13982;DHT22;7065;50.880;5.502;2022-08-20T01:27:26;18.70;99.90
13982;DHT22;7065;50.880;5.502;2022-08-20T01:29:52;18.70;99.90
13982;DHT22;7065;50.880;5.502;2022-08-20T01:32:18;18.70;99.90
13982;DHT22;7065;50.880;5.502;2022-08-20T01:34:44;18.60;99.90
13982;DHT22;7065;50.880;5.502;2022-08-20T01:37:10;18.60;99.90
13982;DHT22;7065;50.880;5.502;2022-08-20T01:39:35;18.60;99.90
13982;DHT22;7065;50.880;5.502;2022-08-20T01:44:31;18.50;99.90
13982;DHT22;7065;50.880;5.502;2022-08-20T01:47:28;18.60;99.90
13982;DHT22;7065;50.880;5.502;2022-08-20T01:50:05;18.50;99.90
13982;DHT22;7065;50.880;5.502;2022-08-20T01:52:58;18.50;99.90
13982;DHT22;7065;50.880;5.502;2022-08-20T01:55:25;18.50;99.90
13982;DHT22;7065;50.880;5.502;2022-08-20T01:57:52;18.50;99.90
13982;DHT22;7065;50.880;5.502;2022-08-20T02:00:19;18.50;99.90
13982;DHT22;7065;50.880;5.502;2022-08-20T02:02:45;18.40;99.90
13982;DHT22;7065;50.880;5.502;2022-08-20T02:05:11;18.40;99.90
13982;DHT22;7065;50.880;5.502;2022-08-20T02:07:37;18.40;99.90
13982;DHT22;7065;50.880;5.502;2022-08-20T02:10:08;18.30;99.90
13982;DHT22;7065;50.880;5.502;2022-08-20T02:12:34;18.30;99.90
13982;DHT22;7065;50.880;5.502;2022-08-20T02:15:00;18.30;99.90
13982;DHT22;7065;50.880;5.502;2022-08-20T02:17:26;18.30;99.90
13982;DHT22;7065;50.880;5.502;2022-08-20T02:19:56;18.30;99.90
13982;DHT22;7065;50.880;5.502;2022-08-20T02:22:44;18.30;99.90
13982;DHT22;7065;50.880;5.502;2022-08-20T02:25:12;18.20;99.90
13982;DHT22;7065;50.880;5.502;2022-08-20T02:27:41;18.20;99.90
13982;DHT22;7065;50.880;5.502;2022-08-20T02:30:15;18.20;99.90
13982;DHT22;7065;50.880;5.502;2022-08-20T02:32:41;18.10;99.90
13982;DHT22;7065;50.880;5.502;2022-08-20T02:35:09;18.10;99.90
13982;DHT22;7065;50.880;5.502;2022-08-20T02:37:36;18.10;99.90
13982;DHT22;7065;50.880;5.502;2022-08-20T02:40:04;18.10;99.90
13982;DHT22;7065;50.880;5.502;2022-08-20T02:42:32;18.00;99.90
13982;DHT22;7065;50.880;5.502;2022-08-20T02:44:58;18.00;99.90
13982;DHT22;7065;50.880;5.502;2022-08-20T02:47:24;18.00;99.90
13982;DHT22;7065;50.880;5.502;2022-08-20T02:49:53;17.90;99.90
13982;DHT22;7065;50.880;5.502;2022-08-20T02:52:19;17.90;99.90
13982;DHT22;7065;50.880;5.502;2022-08-20T02:54:45;17.80;99.90
13982;DHT22;7065;50.880;5.502;2022-08-20T02:57:12;17.80;99.90
13982;DHT22;7065;50.880;5.502;2022-08-20T02:59:38;17.70;99.90
13982;DHT22;7065;50.880;5.502;2022-08-20T03:02:03;17.70;99.90
13982;DHT22;7065;50.880;5.502;2022-08-20T03:04:29;17.70;99.90
13982;DHT22;7065;50.880;5.502;2022-08-20T03:06:55;17.70;99.90
13982;DHT22;7065;50.880;5.502;2022-08-20T03:09:21;17.70;99.90
13982;DHT22;7065;50.880;5.502;2022-08-20T03:11:47;17.70;99.90
13982;DHT22;7065;50.880;5.502;2022-08-20T03:14:13;17.70;99.90
13982;DHT22;7065;50.880;5.502;2022-08-20T03:16:38;17.60;99.90
13982;DHT22;7065;50.880;5.502;2022-08-20T03:19:04;17.60;99.90
13982;DHT22;7065;50.880;5.502;2022-08-20T03:21:30;17.60;99.90
13982;DHT22;7065;50.880;5.502;2022-08-20T03:23:56;17.50;99.90
13982;DHT22;7065;50.880;5.502;2022-08-20T03:26:22;17.50;99.90
13982;DHT22;7065;50.880;5.502;2022-08-20T03:28:47;17.50;99.90
13982;DHT22;7065;50.880;5.502;2022-08-20T03:31:13;17.50;99.90
13982;DHT22;7065;50.880;5.502;2022-08-20T03:33:40;17.40;99.90
13982;DHT22;7065;50.880;5.502;2022-08-20T03:36:06;17.40;99.90
13982;DHT22;7065;50.880;5.502;2022-08-20T03:38:32;17.30;99.90
13982;DHT22;7065;50.880;5.502;2022-08-20T03:40:58;17.30;99.90
13982;DHT22;7065;50.880;5.502;2022-08-20T03:43:23;17.20;99.90
13982;DHT22;7065;50.880;5.502;2022-08-20T03:45:49;17.10;99.90
13982;DHT22;7065;50.880;5.502;2022-08-20T03:48:17;17.00;99.90
13982;DHT22;7065;50.880;5.502;2022-08-20T03:50:44;16.90;99.90
13982;DHT22;7065;50.880;5.502;2022-08-20T03:53:12;16.80;99.90
13982;DHT22;7065;50.880;5.502;2022-08-20T03:55:40;16.80;99.90
13982;DHT22;7065;50.880;5.502;2022-08-20T03:58:07;16.70;99.90
13982;DHT22;7065;50.880;5.502;2022-08-20T04:00:40;16.60;99.90
13982;DHT22;7065;50.880;5.502;2022-08-20T04:03:06;16.60;99.90
13982;DHT22;7065;50.880;5.502;2022-08-20T04:05:34;16.60;99.90
13982;DHT22;7065;50.880;5.502;2022-08-20T04:08:06;16.50;99.90
13982;DHT22;7065;50.880;5.502;2022-08-20T04:10:33;16.50;99.90
13982;DHT22;7065;50.880;5.502;2022-08-20T04:12:59;16.50;99.90
13982;DHT22;7065;50.880;5.502;2022-08-20T04:15:25;16.50;99.90
13982;DHT22;7065;50.880;5.502;2022-08-20T04:17:51;16.40;99.90
13982;DHT22;7065;50.880;5.502;2022-08-20T04:20:22;16.40;99.90
13982;DHT22;7065;50.880;5.502;2022-08-20T04:22:51;16.40;99.90
13982;DHT22;7065;50.880;5.502;2022-08-20T04:25:17;16.40;99.90
13982;DHT22;7065;50.880;5.502;2022-08-20T04:27:44;16.40;99.90
13982;DHT22;7065;50.880;5.502;2022-08-20T04:30:12;16.50;99.90
13982;DHT22;7065;50.880;5.502;2022-08-20T04:32:42;16.50;99.90
13982;DHT22;7065;50.880;5.502;2022-08-20T04:35:11;16.40;99.90
13982;DHT22;7065;50.880;5.502;2022-08-20T04:37:40;16.40;99.90
13982;DHT22;7065;50.880;5.502;2022-08-20T04:40:09;16.40;99.90
13982;DHT22;7065;50.880;5.502;2022-08-20T04:42:53;16.40;99.90
13982;DHT22;7065;50.880;5.502;2022-08-20T04:45:19;16.40;99.90
13982;DHT22;7065;50.880;5.502;2022-08-20T04:47:47;16.30;99.90
13982;DHT22;7065;50.880;5.502;2022-08-20T04:50:14;16.40;99.90
13982;DHT22;7065;50.880;5.502;2022-08-20T04:52:40;16.30;99.90
13982;DHT22;7065;50.880;5.502;2022-08-20T04:55:07;16.30;99.90
13982;DHT22;7065;50.880;5.502;2022-08-20T04:57:33;16.30;99.90
13982;DHT22;7065;50.880;5.502;2022-08-20T05:00:05;16.30;99.90
13982;DHT22;7065;50.880;5.502;2022-08-20T05:02:31;16.30;99.90
13982;DHT22;7065;50.880;5.502;2022-08-20T05:04:56;16.30;99.90
13982;DHT22;7065;50.880;5.502;2022-08-20T05:07:22;16.20;99.90
13982;DHT22;7065;50.880;5.502;2022-08-20T05:09:48;16.20;99.90
13982;DHT22;7065;50.880;5.502;2022-08-20T05:12:14;16.20;99.90
13982;DHT22;7065;50.880;5.502;2022-08-20T05:14:42;16.20;99.90
13982;DHT22;7065;50.880;5.502;2022-08-20T05:17:08;16.20;99.90
13982;DHT22;7065;50.880;5.502;2022-08-20T05:19:34;16.20;99.90
13982;DHT22;7065;50.880;5.502;2022-08-20T05:22:03;16.20;99.90
13982;DHT22;7065;50.880;5.502;2022-08-20T05:24:29;16.20;99.90
13982;DHT22;7065;50.880;5.502;2022-08-20T05:26:55;16.30;99.90
13982;DHT22;7065;50.880;5.502;2022-08-20T05:29:21;16.30;99.90
13982;DHT22;7065;50.880;5.502;2022-08-20T05:31:48;16.20;99.90
13982;DHT22;7065;50.880;5.502;2022-08-20T05:34:14;16.20;99.90
13982;DHT22;7065;50.880;5.502;2022-08-20T05:36:45;16.20;99.90
13982;DHT22;7065;50.880;5.502;2022-08-20T05:39:12;16.20;99.90
13982;DHT22;7065;50.880;5.502;2022-08-20T05:41:38;16.20;99.90
13982;DHT22;7065;50.880;5.502;2022-08-20T05:44:05;16.30;99.90
13982;DHT22;7065;50.880;5.502;2022-08-20T05:46:35;16.20;99.90
13982;DHT22;7065;50.880;5.502;2022-08-20T05:49:06;16.20;99.90
13982;DHT22;7065;50.880;5.502;2022-08-20T05:51:31;16.20;99.90
13982;DHT22;7065;50.880;5.502;2022-08-20T05:53:57;16.20;99.90
13982;DHT22;7065;50.880;5.502;2022-08-20T05:56:23;16.20;99.90
13982;DHT22;7065;50.880;5.502;2022-08-20T05:58:49;16.30;99.90
13982;DHT22;7065;50.880;5.502;2022-08-20T06:01:15;16.30;99.90
13982;DHT22;7065;50.880;5.502;2022-08-20T06:03:40;16.30;99.90
13982;DHT22;7065;50.880;5.502;2022-08-20T06:06:24;16.30;99.90
13982;DHT22;7065;50.880;5.502;2022-08-20T06:08:50;16.30;99.90
13982;DHT22;7065;50.880;5.502;2022-08-20T06:11:16;16.30;99.90
13982;DHT22;7065;50.880;5.502;2022-08-20T06:13:42;16.30;99.90
13982;DHT22;7065;50.880;5.502;2022-08-20T06:16:07;16.30;99.90
13982;DHT22;7065;50.880;5.502;2022-08-20T06:18:33;16.30;99.90
13982;DHT22;7065;50.880;5.502;2022-08-20T06:20:59;16.40;99.90
13982;DHT22;7065;50.880;5.502;2022-08-20T06:23:24;16.40;99.90
13982;DHT22;7065;50.880;5.502;2022-08-20T06:25:50;16.40;99.90
13982;DHT22;7065;50.880;5.502;2022-08-20T06:28:17;16.40;99.90
13982;DHT22;7065;50.880;5.502;2022-08-20T06:30:43;16.40;99.90
13982;DHT22;7065;50.880;5.502;2022-08-20T06:33:08;16.40;99.90
13982;DHT22;7065;50.880;5.502;2022-08-20T06:35:34;16.40;99.90
13982;DHT22;7065;50.880;5.502;2022-08-20T06:38:03;16.40;99.90
13982;DHT22;7065;50.880;5.502;2022-08-20T06:40:30;16.40;99.90
13982;DHT22;7065;50.880;5.502;2022-08-20T06:42:56;16.40;99.90
13982;DHT22;7065;50.880;5.502;2022-08-20T06:45:28;16.40;99.90
13982;DHT22;7065;50.880;5.502;2022-08-20T06:47:58;16.40;99.90
13982;DHT22;7065;50.880;5.502;2022-08-20T06:50:39;16.40;99.90
13982;DHT22;7065;50.880;5.502;2022-08-20T06:53:07;16.40;99.90
13982;DHT22;7065;50.880;5.502;2022-08-20T06:55:33;16.40;99.90
13982;DHT22;7065;50.880;5.502;2022-08-20T06:58:03;16.50;99.90
13982;DHT22;7065;50.880;5.502;2022-08-20T07:00:30;16.50;99.90
13982;DHT22;7065;50.880;5.502;2022-08-20T07:02:58;16.60;99.90
13982;DHT22;7065;50.880;5.502;2022-08-20T07:05:26;16.60;99.90
13982;DHT22;7065;50.880;5.502;2022-08-20T07:07:52;16.70;99.90
13982;DHT22;7065;50.880;5.502;2022-08-20T07:10:19;16.70;99.90
13982;DHT22;7065;50.880;5.502;2022-08-20T07:12:46;16.80;99.90
13982;DHT22;7065;50.880;5.502;2022-08-20T07:15:13;16.80;99.90
13982;DHT22;7065;50.880;5.502;2022-08-20T07:17:40;16.80;99.90
13982;DHT22;7065;50.880;5.502;2022-08-20T07:20:12;16.90;99.90
13982;DHT22;7065;50.880;5.502;2022-08-20T07:22:38;16.90;99.90
13982;DHT22;7065;50.880;5.502;2022-08-20T07:25:05;17.00;99.90
13982;DHT22;7065;50.880;5.502;2022-08-20T07:27:32;17.00;99.90
13982;DHT22;7065;50.880;5.502;2022-08-20T07:29:58;17.10;99.90
13982;DHT22;7065;50.880;5.502;2022-08-20T07:32:43;17.30;99.90
13982;DHT22;7065;50.880;5.502;2022-08-20T07:35:11;17.40;99.90
13982;DHT22;7065;50.880;5.502;2022-08-20T07:37:40;17.40;99.90
13982;DHT22;7065;50.880;5.502;2022-08-20T07:40:12;17.40;99.90
13982;DHT22;7065;50.880;5.502;2022-08-20T07:42:39;17.40;99.90
13982;DHT22;7065;50.880;5.502;2022-08-20T07:45:09;17.50;99.90
13982;DHT22;7065;50.880;5.502;2022-08-20T07:47:40;17.40;99.90
13982;DHT22;7065;50.880;5.502;2022-08-20T07:50:11;17.50;99.90
13982;DHT22;7065;50.880;5.502;2022-08-20T07:52:37;17.40;99.90
13982;DHT22;7065;50.880;5.502;2022-08-20T07:55:08;17.40;99.90
13982;DHT22;7065;50.880;5.502;2022-08-20T07:57:35;17.30;99.90
13982;DHT22;7065;50.880;5.502;2022-08-20T08:00:03;17.40;99.90
13982;DHT22;7065;50.880;5.502;2022-08-20T08:02:29;17.40;99.90
13982;DHT22;7065;50.880;5.502;2022-08-20T08:04:56;17.50;99.90
13982;DHT22;7065;50.880;5.502;2022-08-20T08:07:22;17.50;99.90
13982;DHT22;7065;50.880;5.502;2022-08-20T08:09:49;17.50;99.90
13982;DHT22;7065;50.880;5.502;2022-08-20T08:12:15;17.60;99.90
13982;DHT22;7065;50.880;5.502;2022-08-20T08:14:43;17.60;99.90
13982;DHT22;7065;50.880;5.502;2022-08-20T08:17:10;17.60;99.90
13982;DHT22;7065;50.880;5.502;2022-08-20T08:19:40;17.60;99.90
13982;DHT22;7065;50.880;5.502;2022-08-20T08:22:10;17.60;99.90
13982;DHT22;7065;50.880;5.502;2022-08-20T08:24:38;17.70;99.90
13982;DHT22;7065;50.880;5.502;2022-08-20T08:27:04;17.70;99.90
13982;DHT22;7065;50.880;5.502;2022-08-20T08:29:30;17.70;99.90
13982;DHT22;7065;50.880;5.502;2022-08-20T08:31:56;17.70;99.90
13982;DHT22;7065;50.880;5.502;2022-08-20T08:34:25;17.70;99.90
13982;DHT22;7065;50.880;5.502;2022-08-20T08:36:51;17.80;99.90
13982;DHT22;7065;50.880;5.502;2022-08-20T08:39:17;17.80;99.90
13982;DHT22;7065;50.880;5.502;2022-08-20T08:41:49;17.70;99.90
13982;DHT22;7065;50.880;5.502;2022-08-20T08:44:19;17.80;99.90
13982;DHT22;7065;50.880;5.502;2022-08-20T08:46:52;17.80;99.90
13982;DHT22;7065;50.880;5.502;2022-08-20T08:49:24;17.90;99.90
13982;DHT22;7065;50.880;5.502;2022-08-20T08:51:55;18.00;99.90
13982;DHT22;7065;50.880;5.502;2022-08-20T08:54:24;18.10;99.90
13982;DHT22;7065;50.880;5.502;2022-08-20T08:56:52;18.20;99.90
13982;DHT22;7065;50.880;5.502;2022-08-20T08:59:19;18.30;99.90
13982;DHT22;7065;50.880;5.502;2022-08-20T09:01:51;18.40;99.90
13982;DHT22;7065;50.880;5.502;2022-08-20T09:04:19;18.40;99.90
13982;DHT22;7065;50.880;5.502;2022-08-20T09:06:47;18.50;99.90
13982;DHT22;7065;50.880;5.502;2022-08-20T09:09:20;18.50;99.90
13982;DHT22;7065;50.880;5.502;2022-08-20T09:11:50;18.60;99.90
13982;DHT22;7065;50.880;5.502;2022-08-20T09:14:17;18.50;99.90
13982;DHT22;7065;50.880;5.502;2022-08-20T09:16:44;18.60;99.90
13982;DHT22;7065;50.880;5.502;2022-08-20T09:19:10;18.60;99.90
13982;DHT22;7065;50.880;5.502;2022-08-20T09:21:36;18.60;99.90
13982;DHT22;7065;50.880;5.502;2022-08-20T09:24:02;18.70;99.90
13982;DHT22;7065;50.880;5.502;2022-08-20T09:26:27;18.80;99.90
13982;DHT22;7065;50.880;5.502;2022-08-20T09:28:53;18.90;99.90
13982;DHT22;7065;50.880;5.502;2022-08-20T09:31:19;19.00;99.90
13982;DHT22;7065;50.880;5.502;2022-08-20T09:33:44;19.10;99.90
13982;DHT22;7065;50.880;5.502;2022-08-20T09:36:10;19.20;99.90
13982;DHT22;7065;50.880;5.502;2022-08-20T09:38:36;19.30;99.90
13982;DHT22;7065;50.880;5.502;2022-08-20T09:41:02;19.40;99.90
13982;DHT22;7065;50.880;5.502;2022-08-20T09:43:27;19.60;99.90
13982;DHT22;7065;50.880;5.502;2022-08-20T09:45:53;19.70;99.90
13982;DHT22;7065;50.880;5.502;2022-08-20T09:48:19;19.80;99.90
13982;DHT22;7065;50.880;5.502;2022-08-20T09:50:47;19.80;99.90
13982;DHT22;7065;50.880;5.502;2022-08-20T09:53:14;20.00;99.90
13982;DHT22;7065;50.880;5.502;2022-08-20T09:55:43;20.10;99.90
13982;DHT22;7065;50.880;5.502;2022-08-20T09:58:20;20.10;99.90
13982;DHT22;7065;50.880;5.502;2022-08-20T10:00:47;20.20;99.90
13982;DHT22;7065;50.880;5.502;2022-08-20T10:03:13;20.40;99.90
13982;DHT22;7065;50.880;5.502;2022-08-20T10:05:39;20.40;99.90
13982;DHT22;7065;50.880;5.502;2022-08-20T10:08:09;20.30;99.90
13982;DHT22;7065;50.880;5.502;2022-08-20T10:10:35;20.20;99.90
13982;DHT22;7065;50.880;5.502;2022-08-20T10:13:01;20.10;99.90
13982;DHT22;7065;50.880;5.502;2022-08-20T10:15:28;20.00;99.90
13982;DHT22;7065;50.880;5.502;2022-08-20T10:17:53;20.00;99.90
13982;DHT22;7065;50.880;5.502;2022-08-20T10:20:22;20.00;99.90
13982;DHT22;7065;50.880;5.502;2022-08-20T10:22:48;20.10;99.90
13982;DHT22;7065;50.880;5.502;2022-08-20T10:25:14;20.20;99.90
13982;DHT22;7065;50.880;5.502;2022-08-20T10:27:42;20.40;99.90
13982;DHT22;7065;50.880;5.502;2022-08-20T10:30:09;20.50;99.90
13982;DHT22;7065;50.880;5.502;2022-08-20T10:32:35;20.60;99.90
13982;DHT22;7065;50.880;5.502;2022-08-20T10:35:00;20.70;99.90
13982;DHT22;7065;50.880;5.502;2022-08-20T10:37:26;20.80;99.90
13982;DHT22;7065;50.880;5.502;2022-08-20T10:39:52;20.90;99.90
13982;DHT22;7065;50.880;5.502;2022-08-20T10:42:20;20.90;99.90
13982;DHT22;7065;50.880;5.502;2022-08-20T10:44:45;21.00;99.90
13982;DHT22;7065;50.880;5.502;2022-08-20T10:47:23;20.80;99.90
13982;DHT22;7065;50.880;5.502;2022-08-20T10:49:53;20.70;99.90
13982;DHT22;7065;50.880;5.502;2022-08-20T10:52:21;20.60;99.90
13982;DHT22;7065;50.880;5.502;2022-08-20T10:54:48;20.70;99.90
13982;DHT22;7065;50.880;5.502;2022-08-20T10:57:26;20.80;99.90
13982;DHT22;7065;50.880;5.502;2022-08-20T10:59:54;20.90;99.90
13982;DHT22;7065;50.880;5.502;2022-08-20T11:02:21;20.90;99.90
13982;DHT22;7065;50.880;5.502;2022-08-20T11:04:47;20.90;99.90
13982;DHT22;7065;50.880;5.502;2022-08-20T11:07:15;20.90;99.90
13982;DHT22;7065;50.880;5.502;2022-08-20T11:09:42;20.90;99.90
13982;DHT22;7065;50.880;5.502;2022-08-20T11:12:08;21.00;99.90
13982;DHT22;7065;50.880;5.502;2022-08-20T11:14:34;21.10;99.90
13982;DHT22;7065;50.880;5.502;2022-08-20T11:17:01;21.20;99.90
13982;DHT22;7065;50.880;5.502;2022-08-20T11:19:28;21.20;99.90
13982;DHT22;7065;50.880;5.502;2022-08-20T11:21:53;21.30;99.90
13982;DHT22;7065;50.880;5.502;2022-08-20T11:24:19;21.40;99.90
13982;DHT22;7065;50.880;5.502;2022-08-20T11:26:46;21.60;99.90
13982;DHT22;7065;50.880;5.502;2022-08-20T11:29:13;21.60;99.90
13982;DHT22;7065;50.880;5.502;2022-08-20T11:31:40;21.60;99.90
13982;DHT22;7065;50.880;5.502;2022-08-20T11:34:05;21.60;99.90
13982;DHT22;7065;50.880;5.502;2022-08-20T11:36:31;21.70;99.90
13982;DHT22;7065;50.880;5.502;2022-08-20T11:38:57;21.80;99.90
13982;DHT22;7065;50.880;5.502;2022-08-20T11:41:23;21.90;99.90
13982;DHT22;7065;50.880;5.502;2022-08-20T11:43:49;22.00;99.90
13982;DHT22;7065;50.880;5.502;2022-08-20T11:46:15;22.00;99.90
13982;DHT22;7065;50.880;5.502;2022-08-20T11:48:41;22.10;99.90
13982;DHT22;7065;50.880;5.502;2022-08-20T11:51:06;22.20;99.90
13982;DHT22;7065;50.880;5.502;2022-08-20T11:53:32;22.40;99.90
13982;DHT22;7065;50.880;5.502;2022-08-20T11:55:58;22.60;99.90
13982;DHT22;7065;50.880;5.502;2022-08-20T11:58:24;22.90;99.90
13982;DHT22;7065;50.880;5.502;2022-08-20T12:00:49;23.00;99.90
13982;DHT22;7065;50.880;5.502;2022-08-20T12:03:15;23.20;99.90
13982;DHT22;7065;50.880;5.502;2022-08-20T12:05:43;23.30;99.90
13982;DHT22;7065;50.880;5.502;2022-08-20T12:08:10;23.40;99.90
13982;DHT22;7065;50.880;5.502;2022-08-20T12:10:37;23.50;99.90
13982;DHT22;7065;50.880;5.502;2022-08-20T12:13:04;23.50;99.90
13982;DHT22;7065;50.880;5.502;2022-08-20T12:15:30;23.70;99.90
13982;DHT22;7065;50.880;5.502;2022-08-20T12:17:56;23.70;99.90
13982;DHT22;7065;50.880;5.502;2022-08-20T12:20:22;23.60;99.90
13982;DHT22;7065;50.880;5.502;2022-08-20T12:22:48;23.50;99.90
13982;DHT22;7065;50.880;5.502;2022-08-20T12:25:14;23.50;99.90
13982;DHT22;7065;50.880;5.502;2022-08-20T12:27:40;23.20;99.90
13982;DHT22;7065;50.880;5.502;2022-08-20T12:30:09;23.10;99.90
13982;DHT22;7065;50.880;5.502;2022-08-20T12:32:36;22.90;99.90
13982;DHT22;7065;50.880;5.502;2022-08-20T12:35:03;22.80;99.90
13982;DHT22;7065;50.880;5.502;2022-08-20T12:37:30;22.90;99.90
13982;DHT22;7065;50.880;5.502;2022-08-20T12:39:58;23.00;99.90
13982;DHT22;7065;50.880;5.502;2022-08-20T12:42:25;23.10;99.90
13982;DHT22;7065;50.880;5.502;2022-08-20T12:44:52;23.20;99.90
13982;DHT22;7065;50.880;5.502;2022-08-20T12:47:24;23.40;99.90
13982;DHT22;7065;50.880;5.502;2022-08-20T12:49:55;23.50;99.90
13982;DHT22;7065;50.880;5.502;2022-08-20T12:52:22;23.60;99.90
13982;DHT22;7065;50.880;5.502;2022-08-20T12:54:48;23.70;99.90
13982;DHT22;7065;50.880;5.502;2022-08-20T12:57:29;23.80;99.90
13982;DHT22;7065;50.880;5.502;2022-08-20T12:59:56;24.00;99.90
13982;DHT22;7065;50.880;5.502;2022-08-20T13:02:22;24.10;99.90
13982;DHT22;7065;50.880;5.502;2022-08-20T13:04:48;23.90;99.90
13982;DHT22;7065;50.880;5.502;2022-08-20T13:07:14;23.80;99.90
13982;DHT22;7065;50.880;5.502;2022-08-20T13:09:40;23.80;99.90
13982;DHT22;7065;50.880;5.502;2022-08-20T13:12:07;23.90;99.90
13982;DHT22;7065;50.880;5.502;2022-08-20T13:14:34;24.00;99.90
13982;DHT22;7065;50.880;5.502;2022-08-20T13:17:00;24.10;99.90
13982;DHT22;7065;50.880;5.502;2022-08-20T13:19:28;24.20;99.90
13982;DHT22;7065;50.880;5.502;2022-08-20T13:21:55;24.30;99.90
13982;DHT22;7065;50.880;5.502;2022-08-20T13:24:21;24.40;99.90
13982;DHT22;7065;50.880;5.502;2022-08-20T13:26:47;24.50;99.90
13982;DHT22;7065;50.880;5.502;2022-08-20T13:29:13;24.40;99.90
13982;DHT22;7065;50.880;5.502;2022-08-20T13:31:40;24.40;99.90
13982;DHT22;7065;50.880;5.502;2022-08-20T13:34:06;24.20;99.90
13982;DHT22;7065;50.880;5.502;2022-08-20T13:36:32;24.10;99.90
13982;DHT22;7065;50.880;5.502;2022-08-20T13:38:59;24.00;99.90
13982;DHT22;7065;50.880;5.502;2022-08-20T13:41:25;23.90;99.90
13982;DHT22;7065;50.880;5.502;2022-08-20T13:43:50;23.70;99.90
13982;DHT22;7065;50.880;5.502;2022-08-20T13:46:17;23.90;99.90
13982;DHT22;7065;50.880;5.502;2022-08-20T13:48:42;23.90;99.90
13982;DHT22;7065;50.880;5.502;2022-08-20T13:51:08;24.00;99.90
13982;DHT22;7065;50.880;5.502;2022-08-20T13:53:34;24.10;99.90
13982;DHT22;7065;50.880;5.502;2022-08-20T13:55:59;24.00;99.90
13982;DHT22;7065;50.880;5.502;2022-08-20T13:58:25;24.10;99.90
13982;DHT22;7065;50.880;5.502;2022-08-20T14:00:51;24.10;99.90
13982;DHT22;7065;50.880;5.502;2022-08-20T14:03:17;24.10;99.90
13982;DHT22;7065;50.880;5.502;2022-08-20T14:05:43;24.20;99.90
13982;DHT22;7065;50.880;5.502;2022-08-20T14:08:12;24.40;99.90
13982;DHT22;7065;50.880;5.502;2022-08-20T14:10:39;24.60;99.90
13982;DHT22;7065;50.880;5.502;2022-08-20T14:13:05;24.70;99.90
13982;DHT22;7065;50.880;5.502;2022-08-20T14:15:34;24.80;99.90
13982;DHT22;7065;50.880;5.502;2022-08-20T14:18:00;25.00;99.90
13982;DHT22;7065;50.880;5.502;2022-08-20T14:20:29;25.10;99.90
13982;DHT22;7065;50.880;5.502;2022-08-20T14:22:56;25.20;99.90
13982;DHT22;7065;50.880;5.502;2022-08-20T14:25:23;25.20;99.90
13982;DHT22;7065;50.880;5.502;2022-08-20T14:27:49;24.90;99.90
13982;DHT22;7065;50.880;5.502;2022-08-20T14:30:18;24.90;99.90
13982;DHT22;7065;50.880;5.502;2022-08-20T14:32:44;25.00;99.90
13982;DHT22;7065;50.880;5.502;2022-08-20T14:35:10;25.10;99.90
13982;DHT22;7065;50.880;5.502;2022-08-20T14:37:39;25.20;99.90
13982;DHT22;7065;50.880;5.502;2022-08-20T14:40:08;25.40;99.90
13982;DHT22;7065;50.880;5.502;2022-08-20T14:42:34;25.50;99.90
13982;DHT22;7065;50.880;5.502;2022-08-20T14:45:00;25.50;99.90
13982;DHT22;7065;50.880;5.502;2022-08-20T14:47:30;25.30;99.90
13982;DHT22;7065;50.880;5.502;2022-08-20T14:49:58;25.00;99.90
13982;DHT22;7065;50.880;5.502;2022-08-20T14:52:26;24.90;99.90
13982;DHT22;7065;50.880;5.502;2022-08-20T14:54:52;25.10;99.90
13982;DHT22;7065;50.880;5.502;2022-08-20T14:57:18;25.30;99.90
13982;DHT22;7065;50.880;5.502;2022-08-20T14:59:46;25.30;99.90
13982;DHT22;7065;50.880;5.502;2022-08-20T15:02:14;25.10;99.90
13982;DHT22;7065;50.880;5.502;2022-08-20T15:04:40;24.80;99.90
13982;DHT22;7065;50.880;5.502;2022-08-20T15:07:29;24.80;99.90
13982;DHT22;7065;50.880;5.502;2022-08-20T15:09:56;24.90;99.90
13982;DHT22;7065;50.880;5.502;2022-08-20T15:12:23;25.00;99.90
13982;DHT22;7065;50.880;5.502;2022-08-20T15:14:49;25.30;99.90
13982;DHT22;7065;50.880;5.502;2022-08-20T15:17:19;25.50;99.90
13982;DHT22;7065;50.880;5.502;2022-08-20T15:19:46;25.80;99.90
13982;DHT22;7065;50.880;5.502;2022-08-20T15:22:12;26.00;99.90
13982;DHT22;7065;50.880;5.502;2022-08-20T15:24:38;26.20;99.90
13982;DHT22;7065;50.880;5.502;2022-08-20T15:27:18;26.30;99.90
13982;DHT22;7065;50.880;5.502;2022-08-20T15:29:45;26.40;99.90
13982;DHT22;7065;50.880;5.502;2022-08-20T15:32:11;26.40;99.90
13982;DHT22;7065;50.880;5.502;2022-08-20T15:34:38;26.40;99.90
13982;DHT22;7065;50.880;5.502;2022-08-20T15:37:12;26.50;99.90
13982;DHT22;7065;50.880;5.502;2022-08-20T15:39:39;26.50;99.90
13982;DHT22;7065;50.880;5.502;2022-08-20T15:42:05;26.60;99.90
13982;DHT22;7065;50.880;5.502;2022-08-20T15:44:33;26.70;99.90
13982;DHT22;7065;50.880;5.502;2022-08-20T15:47:13;26.70;99.30
13982;DHT22;7065;50.880;5.502;2022-08-20T15:49:40;26.80;98.70
13982;DHT22;7065;50.880;5.502;2022-08-20T15:52:06;26.70;98.70
13982;DHT22;7065;50.880;5.502;2022-08-20T15:54:32;26.80;98.20